Time;durP1;ratioP1;P1;durP2;ratioP2;P2;SDS_P1;SDS_P2;PMS_P1;PMS_P2;Temp;Humidity;BMP_temperature;BMP_pressure;BME280_temperature;BME280_humidity;BME280_pressure;Samples;Min_cycle;Max_cycle;Signal;HPM_P1;HPM_P2
2021/04/10 00:02:03;;;;;;;23.10;13.17;;;12.00;99.90;;;;;;5068674;28;20192;-76
2021/04/10 00:04:29;;;;;;;24.43;13.70;;;11.90;99.90;;;;;;5070037;28;20611;-76
2021/04/10 00:06:55;;;;;;;24.80;14.90;;;11.90;99.90;;;;;;5065556;28;20279;-76
2021/04/10 00:09:21;;;;;;;27.40;15.13;;;11.80;99.90;;;;;;5070461;28;20242;-76
2021/04/10 00:11:46;;;;;;;23.77;14.60;;;11.80;99.90;;;;;;5075894;28;20179;-76
2021/04/10 00:14:13;;;;;;;23.73;14.37;;;11.70;99.90;;;;;;5073763;28;20180;-76
2021/04/10 00:16:39;;;;;;;24.03;15.30;;;11.50;99.90;;;;;;5071995;28;20790;-76
2021/04/10 00:19:05;;;;;;;20.27;13.67;;;11.40;99.90;;;;;;5071021;28;20270;-75
2021/04/10 00:21:31;;;;;;;27.03;15.10;;;11.20;99.90;;;;;;5072210;28;20188;-74
2021/04/10 00:23:57;;;;;;;23.53;15.20;;;11.20;99.90;;;;;;5075289;28;20184;-76
2021/04/10 00:26:23;;;;;;;26.43;15.67;;;11.10;99.90;;;;;;5082696;28;20190;-75
2021/04/10 00:28:48;;;;;;;23.70;14.77;;;11.00;99.90;;;;;;5072663;28;20708;-76
2021/04/10 00:31:14;;;;;;;23.80;15.57;;;10.90;99.90;;;;;;5072706;28;20258;-76
2021/04/10 00:33:41;;;;;;;23.17;15.37;;;10.80;99.90;;;;;;5073572;28;20194;-76
2021/04/10 00:36:09;;;;;;;25.47;15.87;;;10.80;99.90;;;;;;5071234;28;20219;-76
2021/04/10 00:38:36;;;;;;;26.97;15.73;;;10.60;99.90;;;;;;5066561;28;20195;-75
2021/04/10 00:41:04;;;;;;;25.87;17.03;;;10.60;99.90;;;;;;5070822;28;20214;-75
2021/04/10 00:43:30;;;;;;;25.50;17.37;;;10.50;99.90;;;;;;5073180;28;20231;-76
2021/04/10 00:45:56;;;;;;;24.20;16.57;;;10.40;99.90;;;;;;5073224;28;20181;-76
2021/04/10 00:48:22;;;;;;;26.10;16.17;;;10.40;99.90;;;;;;5067845;28;20179;-76
2021/04/10 00:50:50;;;;;;;27.67;17.17;;;10.20;99.90;;;;;;5073702;28;20194;-75
2021/04/10 00:53:18;;;;;;;25.73;17.57;;;10.30;99.90;;;;;;5078291;28;20677;-76
2021/04/10 00:55:46;;;;;;;28.57;17.53;;;10.30;99.90;;;;;;5069421;28;20186;-77
2021/04/10 00:58:12;;;;;;;26.83;16.67;;;10.30;99.90;;;;;;5071991;28;20184;-76
2021/04/10 01:00:39;;;;;;;25.33;16.47;;;10.20;99.90;;;;;;5076774;28;20258;-76
2021/04/10 01:03:04;;;;;;;29.53;18.60;;;10.10;99.90;;;;;;5077510;28;20190;-76
2021/04/10 01:05:31;;;;;;;29.17;18.23;;;10.10;99.90;;;;;;5074578;28;20297;-76
2021/04/10 01:07:56;;;;;;;25.03;17.00;;;10.10;99.90;;;;;;5071644;28;20187;-76
2021/04/10 01:10:22;;;;;;;27.60;17.60;;;10.10;99.90;;;;;;5065432;28;20222;-76
2021/04/10 01:13:15;;;;;;;32.77;18.20;;;9.90;99.90;;;;;;5071055;28;20194;-75
2021/04/10 01:15:41;;;;;;;26.77;16.40;;;9.80;99.90;;;;;;5070359;28;20232;-75
2021/04/10 01:18:34;;;;;;;25.13;16.67;;;9.80;99.90;;;;;;5073319;28;20653;-75
2021/04/10 01:21:09;;;;;;;24.40;16.00;;;9.70;99.90;;;;;;5066830;28;20313;-77
2021/04/10 01:23:44;;;;;;;26.33;16.80;;;9.80;99.90;;;;;;5077494;28;20192;-75
2021/04/10 01:26:32;;;;;;;26.50;16.73;;;9.70;99.90;;;;;;5069236;28;20291;-76
2021/04/10 01:29:02;;;;;;;24.63;16.37;;;9.80;99.90;;;;;;5069857;28;20212;-76
2021/04/10 01:31:38;;;;;;;27.43;17.20;;;9.90;99.90;;;;;;5070630;28;20175;-77
2021/04/10 01:34:10;;;;;;;26.13;17.40;;;9.90;99.90;;;;;;5067813;28;20172;-77
2021/04/10 01:36:39;;;;;;;25.53;17.13;;;9.80;99.90;;;;;;5069018;28;20257;-76
2021/04/10 01:39:08;;;;;;;26.33;16.87;;;9.70;99.90;;;;;;5065829;28;20206;-76
2021/04/10 01:41:36;;;;;;;26.80;17.60;;;9.60;99.90;;;;;;5072320;28;20705;-76
2021/04/10 01:44:05;;;;;;;28.43;17.60;;;9.60;99.90;;;;;;5071564;28;20183;-76
2021/04/10 01:46:33;;;;;;;24.10;16.97;;;9.60;99.90;;;;;;5069774;28;20251;-76
2021/04/10 01:49:00;;;;;;;25.20;17.07;;;9.60;99.90;;;;;;5071526;28;21618;-76
2021/04/10 01:51:26;;;;;;;25.13;17.50;;;9.60;99.90;;;;;;5070576;28;20191;-77
2021/04/10 01:53:53;;;;;;;27.63;17.97;;;9.70;99.90;;;;;;5070654;28;20278;-76
2021/04/10 01:56:20;;;;;;;27.53;17.67;;;9.70;99.90;;;;;;5071944;28;20572;-77
2021/04/10 01:58:54;;;;;;;24.37;16.60;;;9.70;99.90;;;;;;5067207;28;20263;-76
2021/04/10 02:01:29;;;;;;;30.83;17.33;;;9.80;99.90;;;;;;5071307;28;20179;-76
2021/04/10 02:03:56;;;;;;;26.07;16.83;;;10.00;99.90;;;;;;5071573;28;20194;-77
2021/04/10 02:06:26;;;;;;;28.17;17.40;;;10.00;99.90;;;;;;5073271;28;20232;-76
2021/04/10 02:08:59;;;;;;;26.77;17.20;;;10.20;99.90;;;;;;5071807;28;20300;-76
2021/04/10 02:11:46;;;;;;;26.07;17.30;;;10.30;99.90;;;;;;5069670;28;20186;-76
2021/04/10 02:14:21;;;;;;;29.10;17.10;;;10.20;99.90;;;;;;5068244;28;20186;-76
2021/04/10 02:16:51;;;;;;;26.57;17.60;;;10.10;99.90;;;;;;5054524;28;20218;-76
2021/04/10 02:19:23;;;;;;;26.57;17.97;;;9.80;99.90;;;;;;5071256;28;20706;-76
2021/04/10 02:21:58;;;;;;;27.00;17.37;;;9.80;99.90;;;;;;5054406;28;20587;-76
2021/04/10 02:24:24;;;;;;;28.50;18.60;;;9.90;99.90;;;;;;5069415;28;20181;-76
2021/04/10 02:26:57;;;;;;;26.67;17.73;;;10.10;99.90;;;;;;5053576;28;20581;-77
2021/04/10 02:29:26;;;;;;;28.93;17.20;;;10.10;99.90;;;;;;5067882;28;20215;-77
2021/04/10 02:32:00;;;;;;;28.60;17.80;;;10.00;99.90;;;;;;5070107;28;20172;-77
2021/04/10 02:34:33;;;;;;;26.73;17.13;;;10.10;99.90;;;;;;5052488;28;20194;-76
2021/04/10 02:37:07;;;;;;;25.87;17.10;;;10.10;99.90;;;;;;5069808;28;20179;-76
2021/04/10 02:39:39;;;;;;;27.07;16.63;;;10.20;99.90;;;;;;5067437;28;20606;-76
2021/04/10 02:42:09;;;;;;;29.33;19.07;;;10.30;99.90;;;;;;5085694;28;20218;-77
2021/04/10 02:44:45;;;;;;;29.30;18.17;;;10.50;99.90;;;;;;5070022;28;20182;-76
2021/04/10 02:47:14;;;;;;;31.30;19.37;;;10.50;99.90;;;;;;5066558;28;20266;-76
2021/04/10 02:49:42;;;;;;;29.23;17.97;;;10.50;99.90;;;;;;5073147;28;20579;-76
2021/04/10 02:52:10;;;;;;;28.57;18.67;;;10.40;99.90;;;;;;5050935;28;20183;-76
2021/04/10 02:54:43;;;;;;;28.83;18.50;;;10.40;99.90;;;;;;5069108;28;20176;-75
2021/04/10 02:57:16;;;;;;;30.23;18.60;;;10.40;99.90;;;;;;5068855;28;20211;-75
2021/04/10 02:59:45;;;;;;;28.07;18.17;;;10.40;99.90;;;;;;5069693;28;20199;-76
2021/04/10 03:02:15;;;;;;;30.43;19.07;;;10.40;99.90;;;;;;5053439;28;20712;-76
2021/04/10 03:04:44;;;;;;;29.37;19.20;;;10.30;99.90;;;;;;5068703;28;20200;-76
2021/04/10 03:07:12;;;;;;;30.83;18.90;;;10.30;99.90;;;;;;5068563;28;20310;-75
2021/04/10 03:09:41;;;;;;;25.87;18.03;;;10.40;99.90;;;;;;5055565;28;20191;-77
2021/04/10 03:12:19;;;;;;;31.03;18.90;;;10.40;99.90;;;;;;5069399;28;20236;-76
2021/04/10 03:14:46;;;;;;;31.47;20.03;;;10.30;99.90;;;;;;5074489;28;20225;-76
2021/04/10 03:17:26;;;;;;;28.97;19.00;;;10.40;99.90;;;;;;5046927;28;20184;-76
2021/04/10 03:19:59;;;;;;;30.30;19.47;;;10.60;99.90;;;;;;5071558;28;20590;-75
2021/04/10 03:22:26;;;;;;;31.77;19.47;;;10.70;99.90;;;;;;5052293;28;20180;-76
2021/04/10 03:24:54;;;;;;;30.93;20.20;;;10.70;99.90;;;;;;5070702;28;20288;-75
2021/04/10 03:27:20;;;;;;;29.80;19.77;;;10.70;99.90;;;;;;5075990;28;20215;-76
2021/04/10 03:29:47;;;;;;;30.83;20.10;;;10.80;99.90;;;;;;5069832;28;20202;-76
2021/04/10 03:32:15;;;;;;;30.00;19.87;;;10.70;99.90;;;;;;5070329;28;20184;-76
2021/04/10 03:34:47;;;;;;;29.80;19.53;;;10.70;99.90;;;;;;5066037;28;20180;-76
2021/04/10 03:37:13;;;;;;;29.33;18.47;;;10.60;99.90;;;;;;5052783;28;20259;-76
2021/04/10 03:39:40;;;;;;;25.73;17.47;;;10.50;99.90;;;;;;5071230;28;20662;-76
2021/04/10 03:42:09;;;;;;;26.33;18.00;;;10.50;99.90;;;;;;5053906;28;20309;-76
2021/04/10 03:44:35;;;;;;;30.13;18.23;;;10.50;99.90;;;;;;5070038;28;20197;-76
2021/04/10 03:47:01;;;;;;;25.37;17.47;;;10.60;99.90;;;;;;5067962;28;20530;-76
2021/04/10 03:49:27;;;;;;;32.27;19.57;;;10.60;99.90;;;;;;5065145;28;20218;-77
2021/04/10 03:51:54;;;;;;;30.57;19.87;;;10.70;99.90;;;;;;5071268;28;20183;-76
2021/04/10 03:54:20;;;;;;;28.80;19.00;;;10.60;99.90;;;;;;5068443;28;20180;-76
2021/04/10 03:56:47;;;;;;;32.07;19.57;;;10.60;99.90;;;;;;5051957;28;20187;-77
2021/04/10 03:59:22;;;;;;;30.77;19.80;;;10.50;99.90;;;;;;5064336;28;20183;-76
2021/04/10 04:01:51;;;;;;;29.60;19.87;;;10.40;99.90;;;;;;5070610;28;20612;-76
2021/04/10 04:04:17;;;;;;;32.17;20.43;;;10.50;99.90;;;;;;5064295;28;20176;-76
2021/04/10 04:06:43;;;;;;;31.63;20.53;;;10.50;99.90;;;;;;5077072;28;20256;-76
2021/04/10 04:09:09;;;;;;;31.97;20.37;;;10.50;99.90;;;;;;5053638;28;20634;-76
2021/04/10 04:11:35;;;;;;;29.17;20.00;;;10.50;99.90;;;;;;5068086;28;20298;-76
2021/04/10 04:14:00;;;;;;;31.80;20.33;;;10.60;99.90;;;;;;5066758;28;20278;-76
2021/04/10 04:16:26;;;;;;;28.63;19.50;;;10.70;99.90;;;;;;5070948;28;20194;-76
2021/04/10 04:18:51;;;;;;;28.20;19.33;;;10.70;99.90;;;;;;5067729;28;20198;-76
2021/04/10 04:21:17;;;;;;;30.87;20.43;;;10.60;99.90;;;;;;5067528;28;20212;-75
2021/04/10 04:23:43;;;;;;;30.03;19.40;;;10.60;99.90;;;;;;5064092;28;20183;-76
2021/04/10 04:26:08;;;;;;;35.23;21.47;;;10.60;99.90;;;;;;5069105;28;20176;-77
2021/04/10 04:28:34;;;;;;;30.90;19.93;;;10.60;99.90;;;;;;5066311;28;20179;-77
2021/04/10 04:31:00;;;;;;;34.47;21.80;;;10.60;99.90;;;;;;5063850;28;20183;-77
2021/04/10 04:33:25;;;;;;;31.57;20.80;;;10.70;99.90;;;;;;5067910;28;20263;-77
2021/04/10 04:35:51;;;;;;;32.43;21.43;;;10.50;99.90;;;;;;5066826;28;20168;-77
2021/04/10 04:38:16;;;;;;;30.70;21.50;;;10.40;99.90;;;;;;5070108;28;20244;-77
2021/04/10 04:40:42;;;;;;;34.67;20.77;;;10.50;99.90;;;;;;5065445;28;20184;-77
2021/04/10 04:43:08;;;;;;;33.33;21.13;;;10.50;99.90;;;;;;5063168;28;20226;-76
2021/04/10 04:45:33;;;;;;;32.73;21.03;;;10.40;99.90;;;;;;5073913;28;20246;-75
2021/04/10 04:47:59;;;;;;;31.30;19.90;;;10.40;99.90;;;;;;5067914;28;20558;-76
2021/04/10 04:50:25;;;;;;;31.80;20.67;;;10.30;99.90;;;;;;5049970;28;20206;-76
2021/04/10 04:52:50;;;;;;;35.03;20.40;;;10.20;99.90;;;;;;5070793;28;20678;-77
2021/04/10 04:55:16;;;;;;;33.17;20.10;;;10.20;99.90;;;;;;5070615;28;20252;-76
2021/04/10 04:57:41;;;;;;;33.43;19.90;;;10.20;99.90;;;;;;5075248;28;20179;-77
2021/04/10 05:00:08;;;;;;;37.10;20.43;;;10.30;99.90;;;;;;5072837;28;20575;-77
2021/04/10 05:02:33;;;;;;;37.97;19.97;;;10.30;99.90;;;;;;5053081;28;20191;-76
2021/04/10 05:04:59;;;;;;;32.27;19.73;;;10.30;99.90;;;;;;5071810;28;20224;-77
2021/04/10 05:07:25;;;;;;;32.73;19.90;;;10.20;99.90;;;;;;5069933;28;20593;-77
2021/04/10 05:09:50;;;;;;;33.53;20.53;;;10.10;99.90;;;;;;5072588;28;20205;-77
2021/04/10 05:12:16;;;;;;;37.33;21.40;;;9.80;99.90;;;;;;5074698;28;20175;-76
2021/04/10 05:14:42;;;;;;;35.67;20.77;;;9.80;99.90;;;;;;5068556;28;20198;-77
2021/04/10 05:17:07;;;;;;;40.43;22.03;;;9.80;99.90;;;;;;5074183;28;20216;-77
2021/04/10 05:19:33;;;;;;;41.43;22.93;;;9.90;99.90;;;;;;5073070;28;20197;-76
2021/04/10 05:21:59;;;;;;;42.20;22.53;;;9.90;99.90;;;;;;5071333;28;20645;-78
2021/04/10 05:24:25;;;;;;;45.90;24.00;;;9.80;99.90;;;;;;5069769;28;20212;-76
2021/04/10 05:26:50;;;;;;;45.57;23.43;;;9.80;99.90;;;;;;5068546;28;20285;-77
2021/04/10 05:29:16;;;;;;;44.97;24.37;;;9.80;99.90;;;;;;5071146;28;20197;-76
2021/04/10 05:31:42;;;;;;;49.70;25.40;;;9.80;99.90;;;;;;5069972;28;20181;-76
2021/04/10 05:34:07;;;;;;;47.50;25.83;;;9.80;99.90;;;;;;5071791;28;20199;-76
2021/04/10 05:36:33;;;;;;;44.43;24.87;;;9.90;99.90;;;;;;5075177;28;20190;-76
2021/04/10 05:38:58;;;;;;;43.70;25.03;;;9.90;99.90;;;;;;5068743;28;20288;-76
2021/04/10 05:41:24;;;;;;;43.27;24.63;;;10.00;99.90;;;;;;5068010;28;20188;-76
2021/04/10 05:43:50;;;;;;;47.13;25.00;;;9.90;99.90;;;;;;5068925;28;20241;-76
2021/04/10 05:46:16;;;;;;;45.90;25.30;;;9.90;99.90;;;;;;5073617;28;20186;-77
2021/04/10 05:48:41;;;;;;;46.20;25.53;;;10.00;99.90;;;;;;5070267;28;20567;-77
2021/04/10 05:51:07;;;;;;;45.83;26.53;;;10.00;99.90;;;;;;5069696;28;20193;-76
2021/04/10 05:53:33;;;;;;;47.33;26.03;;;10.10;99.90;;;;;;5073544;28;20179;-76
2021/04/10 05:55:59;;;;;;;45.77;25.33;;;10.10;99.90;;;;;;5072043;28;20646;-76
2021/04/10 05:58:24;;;;;;;48.43;26.67;;;10.10;99.90;;;;;;5072831;28;20194;-76
2021/04/10 06:00:50;;;;;;;45.30;25.33;;;10.10;99.90;;;;;;5067532;28;20991;-77
2021/04/10 06:03:16;;;;;;;49.73;25.40;;;10.10;99.90;;;;;;5071072;28;20189;-76
2021/04/10 06:05:46;;;;;;;50.70;27.33;;;10.10;99.90;;;;;;5070513;28;20195;-76
2021/04/10 06:08:12;;;;;;;49.97;28.90;;;10.10;99.90;;;;;;5067671;28;20197;-76
2021/04/10 06:10:38;;;;;;;51.73;28.53;;;10.00;99.90;;;;;;5069346;28;20221;-76
2021/04/10 06:13:03;;;;;;;52.37;28.80;;;10.00;99.90;;;;;;5073885;28;20314;-76
2021/04/10 06:15:29;;;;;;;53.23;29.67;;;9.90;99.90;;;;;;5071447;28;20268;-77
2021/04/10 06:17:55;;;;;;;52.43;29.77;;;9.70;99.90;;;;;;5070663;28;20183;-76
2021/04/10 06:20:21;;;;;;;49.33;28.50;;;9.60;99.90;;;;;;5071652;28;20196;-76
2021/04/10 06:22:47;;;;;;;53.63;29.80;;;9.50;99.90;;;;;;5071656;28;20189;-75
2021/04/10 06:25:13;;;;;;;54.00;30.10;;;9.50;99.90;;;;;;5066390;28;20187;-75
2021/04/10 06:27:38;;;;;;;59.00;31.63;;;9.40;99.90;;;;;;5069430;28;20240;-76
2021/04/10 06:30:06;;;;;;;59.93;31.53;;;9.40;99.90;;;;;;5069460;28;20202;-76
2021/04/10 06:32:32;;;;;;;62.07;31.33;;;9.50;99.90;;;;;;5065430;28;20696;-77
2021/04/10 06:34:57;;;;;;;58.90;31.97;;;9.50;99.90;;;;;;5071640;28;20190;-76
2021/04/10 06:37:23;;;;;;;60.53;32.43;;;9.60;99.90;;;;;;5064118;28;20245;-76
2021/04/10 06:39:49;;;;;;;58.10;31.97;;;9.60;99.90;;;;;;5054038;28;20190;-76
2021/04/10 06:42:14;;;;;;;58.60;31.60;;;9.70;99.90;;;;;;5066389;28;20717;-75
2021/04/10 06:44:40;;;;;;;61.77;31.77;;;9.70;99.90;;;;;;5072244;28;20215;-75
2021/04/10 06:47:07;;;;;;;60.83;32.43;;;9.80;99.90;;;;;;5070503;28;20208;-76
2021/04/10 06:49:33;;;;;;;55.57;30.93;;;9.70;99.90;;;;;;5050878;28;20693;-76
2021/04/10 06:51:59;;;;;;;57.90;31.73;;;9.60;99.90;;;;;;5068634;28;20185;-78
2021/04/10 06:54:34;;;;;;;55.83;30.73;;;9.70;99.90;;;;;;5072150;28;20175;-76
2021/04/10 06:57:06;;;;;;;58.70;31.63;;;9.60;99.90;;;;;;5068579;28;20181;-77
2021/04/10 06:59:57;;;;;;;67.13;32.97;;;9.60;99.90;;;;;;5085160;28;20182;-76
2021/04/10 07:02:24;;;;;;;72.67;32.83;;;9.60;99.90;;;;;;5067782;28;20633;-76
2021/04/10 07:04:50;;;;;;;59.37;32.70;;;9.60;99.90;;;;;;5067684;28;20216;-76
2021/04/10 07:07:16;;;;;;;64.07;32.23;;;9.60;99.90;;;;;;5050942;28;20182;-77
2021/04/10 07:09:42;;;;;;;59.30;32.13;;;9.50;99.90;;;;;;5068761;28;20222;-76
2021/04/10 07:12:09;;;;;;;63.37;32.60;;;9.70;99.90;;;;;;5067081;28;20643;-76
2021/04/10 07:14:35;;;;;;;64.30;34.13;;;9.70;99.90;;;;;;5068898;28;20198;-76
2021/04/10 07:17:01;;;;;;;56.40;33.20;;;9.70;99.90;;;;;;5070184;28;20247;-76
2021/04/10 07:19:29;;;;;;;60.53;32.53;;;9.60;99.90;;;;;;5072796;28;20165;-76
2021/04/10 07:22:04;;;;;;;57.30;31.90;;;9.60;99.90;;;;;;5069441;28;20190;-75
2021/04/10 07:24:42;;;;;;;57.57;31.97;;;9.70;99.90;;;;;;5071472;28;20200;-76
2021/04/10 07:27:11;;;;;;;58.17;31.47;;;9.70;99.90;;;;;;5068204;28;20180;-77
2021/04/10 07:29:40;;;;;;;57.17;32.10;;;9.70;99.90;;;;;;5070877;28;20204;-77
2021/04/10 07:32:32;;;;;;;57.43;31.73;;;9.70;99.90;;;;;;5072586;28;20189;-76
2021/04/10 07:35:04;;;;;;;55.17;31.27;;;9.60;99.90;;;;;;5070972;28;20207;-76
2021/04/10 07:37:32;;;;;;;62.97;32.00;;;9.70;99.90;;;;;;5072284;28;20181;-76
2021/04/10 07:40:00;;;;;;;62.90;34.27;;;9.60;99.90;;;;;;5065366;28;20190;-76
2021/04/10 07:42:29;;;;;;;62.13;33.40;;;9.70;99.90;;;;;;5069430;28;20228;-77
2021/04/10 07:44:56;;;;;;;56.87;32.57;;;9.70;99.90;;;;;;5070516;28;20189;-77
2021/04/10 07:47:38;;;;;;;61.67;34.23;;;9.70;99.90;;;;;;5054386;28;20653;-77
2021/04/10 07:50:26;;;;;;;56.73;32.07;;;9.80;99.90;;;;;;5071792;28;20258;-76
2021/04/10 07:52:52;;;;;;;57.97;30.67;;;9.90;99.90;;;;;;5069626;28;20259;-76
2021/04/10 07:55:39;;;;;;;57.30;32.40;;;10.00;99.90;;;;;;5069397;28;20191;-77
2021/04/10 07:58:30;;;;;;;52.67;30.90;;;10.10;99.90;;;;;;5066755;28;20588;-77
2021/04/10 08:01:07;;;;;;;55.83;31.30;;;10.20;99.90;;;;;;5065701;28;20186;-77
2021/04/10 08:03:34;;;;;;;52.47;31.53;;;10.30;99.90;;;;;;5066314;28;20380;-77
2021/04/10 08:06:06;;;;;;;58.83;32.50;;;10.30;99.90;;;;;;5073940;28;20189;-77
2021/04/10 08:08:53;;;;;;;66.67;34.43;;;10.30;99.90;;;;;;5071346;28;20404;-77
2021/04/10 08:11:36;;;;;;;61.03;32.33;;;10.20;99.90;;;;;;5067143;28;20649;-77
2021/04/10 08:14:10;;;;;;;64.37;36.30;;;10.10;99.90;;;;;;5066938;28;20181;-77
2021/04/10 08:16:47;;;;;;;66.20;35.70;;;10.00;99.90;;;;;;5069081;28;20210;-77
2021/04/10 08:19:15;;;;;;;66.03;36.60;;;10.00;99.90;;;;;;5069176;28;20181;-78
2021/04/10 08:21:51;;;;;;;64.73;35.33;;;10.10;99.90;;;;;;5066896;28;20198;-77
2021/04/10 08:24:20;;;;;;;64.80;36.10;;;10.10;99.90;;;;;;5064436;28;20186;-77
2021/04/10 08:26:47;;;;;;;67.77;35.93;;;10.20;99.90;;;;;;5061246;28;20179;-77
2021/04/10 08:29:12;;;;;;;66.87;36.40;;;10.10;99.90;;;;;;5066439;28;20606;-77
2021/04/10 08:31:39;;;;;;;65.37;37.57;;;9.90;99.90;;;;;;5069963;28;20197;-77
2021/04/10 08:34:04;;;;;;;60.80;34.43;;;9.90;99.90;;;;;;5054023;28;20536;-78
2021/04/10 08:36:32;;;;;;;68.60;35.57;;;9.90;99.90;;;;;;5071039;28;20197;-77
2021/04/10 08:38:58;;;;;;;67.40;36.97;;;10.00;99.90;;;;;;5073079;28;20186;-76
2021/04/10 08:41:28;;;;;;;69.63;37.30;;;10.10;99.90;;;;;;5067684;28;20281;-77
2021/04/10 08:43:55;;;;;;;72.13;38.87;;;10.10;99.90;;;;;;5071455;28;20189;-76
2021/04/10 08:46:23;;;;;;;65.37;37.47;;;10.20;99.90;;;;;;5066853;28;20200;-77
2021/04/10 08:48:57;;;;;;;68.23;37.90;;;10.10;99.90;;;;;;5071394;28;20191;-75
2021/04/10 08:51:26;;;;;;;65.43;38.20;;;10.10;99.90;;;;;;5054680;28;20231;-76
2021/04/10 08:53:54;;;;;;;63.63;35.23;;;10.20;99.90;;;;;;5070430;28;20175;-76
2021/04/10 08:56:23;;;;;;;64.77;36.20;;;10.30;99.90;;;;;;5072994;28;20342;-76
2021/04/10 08:58:49;;;;;;;58.73;35.17;;;10.30;99.90;;;;;;5068918;28;20192;-76
2021/04/10 09:01:20;;;;;;;59.43;35.33;;;10.30;99.90;;;;;;5074934;28;20176;-76
2021/04/10 09:03:45;;;;;;;62.73;34.77;;;10.30;99.90;;;;;;5072712;28;20650;-76
2021/04/10 09:06:16;;;;;;;61.47;35.33;;;10.40;99.90;;;;;;5074242;28;20268;-76
2021/04/10 09:08:42;;;;;;;64.67;36.47;;;10.40;99.90;;;;;;5073277;28;20194;-76
2021/04/10 09:11:08;;;;;;;59.23;35.60;;;10.50;99.90;;;;;;5068510;28;20187;-75
2021/04/10 09:13:42;;;;;;;54.50;34.23;;;10.70;99.90;;;;;;5071784;28;20222;-76
2021/04/10 09:16:37;;;;;;;59.97;35.90;;;10.60;99.90;;;;;;5070798;28;20191;-76
2021/04/10 09:19:04;;;;;;;65.27;36.80;;;10.60;99.90;;;;;;5071521;28;20190;-76
2021/04/10 09:21:36;;;;;;;62.00;36.07;;;10.60;99.90;;;;;;5074704;28;20202;-76
2021/04/10 09:24:18;;;;;;;59.47;35.53;;;10.40;99.90;;;;;;5068284;28;20183;-76
2021/04/10 09:27:31;;;;;;;62.90;37.00;;;10.30;99.90;;;;;;5074062;28;20196;-77
2021/04/10 09:30:00;;;;;;;69.70;38.40;;;10.20;99.90;;;;;;5068860;28;20224;-76
2021/04/10 09:32:34;;;;;;;68.97;38.80;;;10.30;99.90;;;;;;5072067;28;20186;-76
2021/04/10 09:35:21;;;;;;;65.80;37.63;;;10.30;99.90;;;;;;5072709;28;20231;-76
2021/04/10 09:37:49;;;;;;;63.80;37.87;;;10.10;99.90;;;;;;5071757;28;20186;-77
2021/04/10 09:40:25;;;;;;;65.57;35.87;;;10.10;99.90;;;;;;5071680;28;20183;-78
2021/04/10 09:43:04;;;;;;;57.03;35.13;;;10.10;99.90;;;;;;5067854;28;20226;-77
2021/04/10 09:45:34;;;;;;;63.00;35.40;;;10.20;99.90;;;;;;5073298;28;20183;-77
2021/04/10 09:48:03;;;;;;;60.07;35.37;;;10.40;99.90;;;;;;5069410;28;20184;-78
2021/04/10 09:50:37;;;;;;;56.43;34.60;;;10.50;99.90;;;;;;5073020;28;20234;-76
2021/04/10 09:53:27;;;;;;;58.50;33.90;;;10.60;99.90;;;;;;5070899;28;20258;-76
2021/04/10 09:56:02;;;;;;;57.57;33.27;;;10.70;99.90;;;;;;5067386;28;20261;-76
2021/04/10 09:58:45;;;;;;;50.57;31.57;;;10.60;99.90;;;;;;5075578;28;20181;-76
2021/04/10 10:01:14;;;;;;;53.13;32.77;;;10.70;99.90;;;;;;5072309;28;20562;-76
2021/04/10 10:03:41;;;;;;;50.37;32.43;;;10.70;99.90;;;;;;5068969;28;20186;-76
2021/04/10 10:06:18;;;;;;;54.03;33.17;;;10.70;99.90;;;;;;5069257;28;20211;-76
2021/04/10 10:08:44;;;;;;;49.90;31.63;;;10.90;99.90;;;;;;5070489;28;20191;-76
2021/04/10 10:11:10;;;;;;;49.23;32.17;;;11.00;99.90;;;;;;5068593;28;20201;-76
2021/04/10 10:13:37;;;;;;;49.80;34.23;;;11.10;99.90;;;;;;5066719;28;20210;-76
2021/04/10 10:16:03;;;;;;;47.90;31.03;;;11.10;99.90;;;;;;5069713;28;20180;-76
2021/04/10 10:18:34;;;;;;;48.23;31.30;;;11.20;99.90;;;;;;5065253;28;20208;-76
2021/04/10 10:21:16;;;;;;;47.37;31.23;;;11.20;99.90;;;;;;5069175;28;20553;-76
2021/04/10 10:23:50;;;;;;;45.77;30.30;;;11.20;99.90;;;;;;5067430;28;20187;-76
2021/04/10 10:26:17;;;;;;;46.77;30.53;;;11.40;99.90;;;;;;5069520;28;20211;-76
2021/04/10 10:28:46;;;;;;;45.33;30.30;;;11.50;99.90;;;;;;5069404;28;20216;-76
2021/04/10 10:31:14;;;;;;;48.83;30.73;;;11.50;99.90;;;;;;5068100;28;20660;-76
2021/04/10 10:33:40;;;;;;;47.90;32.37;;;11.50;99.90;;;;;;5068596;28;20187;-75
2021/04/10 10:36:07;;;;;;;38.87;26.47;;;11.50;99.90;;;;;;5064656;28;20172;-76
2021/04/10 10:38:35;;;;;;;45.50;29.40;;;11.40;99.90;;;;;;5068295;28;20262;-76
2021/04/10 10:41:02;;;;;;;43.80;29.23;;;11.60;99.90;;;;;;5067837;28;20222;-76
2021/04/10 10:43:28;;;;;;;41.20;28.17;;;11.70;99.90;;;;;;5067448;28;20615;-75
2021/04/10 10:46:00;;;;;;;39.67;27.13;;;11.70;99.90;;;;;;5053595;28;20278;-76
2021/04/10 10:48:34;;;;;;;42.30;28.00;;;11.80;99.90;;;;;;5068503;28;20188;-76
2021/04/10 10:51:00;;;;;;;33.70;23.77;;;11.80;99.90;;;;;;5067544;28;20754;-76
2021/04/10 10:53:30;;;;;;;40.00;26.83;;;11.80;99.90;;;;;;5070001;28;20295;-77
2021/04/10 10:56:08;;;;;;;40.77;27.30;;;11.90;99.90;;;;;;5066331;28;20663;-77
2021/04/10 10:58:37;;;;;;;39.23;27.47;;;11.80;99.90;;;;;;5070831;28;20175;-77
2021/04/10 11:01:30;;;;;;;37.73;27.13;;;11.80;99.90;;;;;;5061849;28;20188;-76
2021/04/10 11:04:23;;;;;;;40.40;25.90;;;11.80;99.90;;;;;;5071671;28;20224;-76
2021/04/10 11:06:51;;;;;;;39.03;26.53;;;11.80;99.90;;;;;;5066282;28;20184;-77
2021/04/10 11:09:27;;;;;;;33.97;23.60;;;11.70;99.90;;;;;;5067934;28;20214;-77
2021/04/10 11:11:59;;;;;;;33.83;24.47;;;11.70;99.90;;;;;;5071333;28;20571;-77
2021/04/10 11:14:27;;;;;;;36.03;23.53;;;11.70;99.90;;;;;;5067179;28;20176;-77
2021/04/10 11:16:54;;;;;;;33.90;23.67;;;11.80;99.90;;;;;;5069397;28;20183;-77
2021/04/10 11:19:43;;;;;;;32.67;22.07;;;11.80;99.90;;;;;;5063766;28;20181;-77
2021/04/10 11:22:14;;;;;;;35.57;22.57;;;12.00;99.90;;;;;;5071070;28;20253;-76
2021/04/10 11:24:48;;;;;;;32.80;23.10;;;12.20;99.90;;;;;;5065559;28;20208;-78
2021/04/10 11:27:24;;;;;;;36.50;22.47;;;12.20;99.90;;;;;;5072566;28;20512;-76
2021/04/10 11:29:59;;;;;;;30.13;19.87;;;12.40;99.90;;;;;;5069967;28;20224;-78
2021/04/10 11:32:36;;;;;;;25.90;19.27;;;12.50;99.90;;;;;;5065517;28;20276;-76
2021/04/10 11:35:21;;;;;;;25.17;17.60;;;12.60;99.90;;;;;;5070472;28;20250;-76
2021/04/10 11:37:56;;;;;;;23.50;16.30;;;12.70;99.90;;;;;;5068659;28;20273;-77
2021/04/10 11:40:27;;;;;;;24.83;17.57;;;12.90;99.90;;;;;;5073014;28;20315;-77
2021/04/10 11:42:55;;;;;;;22.63;15.13;;;13.10;99.90;;;;;;5072302;28;20235;-77
2021/04/10 11:45:41;;;;;;;24.40;16.90;;;13.10;99.90;;;;;;5049632;28;20249;-76
2021/04/10 11:48:12;;;;;;;20.60;15.60;;;13.00;99.90;;;;;;5070820;28;20190;-76
2021/04/10 11:50:43;;;;;;;24.70;18.27;;;13.00;99.90;;;;;;5068638;28;20209;-77
2021/04/10 11:53:14;;;;;;;23.47;16.97;;;13.10;99.90;;;;;;5072730;28;20547;-76
2021/04/10 11:55:39;;;;;;;19.90;12.03;;;13.20;99.90;;;;;;5068062;28;20181;-76
2021/04/10 11:58:05;;;;;;;18.07;12.70;;;13.30;99.90;;;;;;5070347;28;20727;-76
2021/04/10 12:00:31;;;;;;;19.50;13.13;;;13.30;99.90;;;;;;5070164;28;20645;-75
2021/04/10 12:03:10;;;;;;;21.17;14.77;;;13.20;99.90;;;;;;5067976;28;20193;-76
2021/04/10 12:05:42;;;;;;;22.07;14.77;;;13.30;99.90;;;;;;5072729;28;20667;-76
2021/04/10 12:08:25;;;;;;;22.53;15.83;;;13.20;99.90;;;;;;5067732;28;20211;-76
2021/04/10 12:10:59;;;;;;;25.53;16.37;;;13.00;99.90;;;;;;5066828;28;20214;-76
2021/04/10 12:13:27;;;;;;;22.93;14.90;;;12.90;99.90;;;;;;5069335;28;20191;-77
2021/04/10 12:15:55;;;;;;;22.03;15.17;;;12.90;99.90;;;;;;5051199;28;20220;-77
2021/04/10 12:18:23;;;;;;;21.60;15.53;;;12.90;99.90;;;;;;5070857;28;20180;-76
2021/04/10 12:20:49;;;;;;;23.67;16.63;;;12.80;99.90;;;;;;5066561;28;20247;-77
2021/04/10 12:23:16;;;;;;;23.23;15.70;;;12.90;99.90;;;;;;5068851;28;20207;-76
2021/04/10 12:25:41;;;;;;;21.80;16.07;;;12.90;99.90;;;;;;5072087;28;20293;-75
2021/04/10 12:28:07;;;;;;;23.10;15.17;;;13.00;99.90;;;;;;5064549;28;20710;-75
2021/04/10 12:30:33;;;;;;;24.27;15.97;;;13.00;99.90;;;;;;5071282;28;20222;-75
2021/04/10 12:32:59;;;;;;;20.93;15.23;;;12.90;99.90;;;;;;5070838;28;20632;-75
2021/04/10 12:35:25;;;;;;;23.70;15.73;;;12.80;99.90;;;;;;5066464;28;20164;-75
2021/04/10 12:37:50;;;;;;;22.33;15.80;;;12.60;99.90;;;;;;5070648;28;20188;-76
2021/04/10 12:40:18;;;;;;;25.23;16.97;;;12.30;99.90;;;;;;5068032;28;20278;-76
2021/04/10 12:42:46;;;;;;;23.47;16.60;;;12.20;99.90;;;;;;5069954;28;20236;-76
2021/04/10 12:45:13;;;;;;;25.97;18.23;;;12.10;99.90;;;;;;5069429;28;20269;-77